Time;durP1;ratioP1;P1;durP2;ratioP2;P2;SDS_P1;SDS_P2;PMS_P1;PMS_P2;Temp;Humidity;BMP_temperature;BMP_pressure;BME280_temperature;BME280_humidity;BME280_pressure;Samples;Min_cycle;Max_cycle;Signal;HPM_P1;HPM_P2
2022/10/29 00:01:35;;;;;;;33.10;9.60;;;13.30;99.90;;;;;;5088523;28;20468;-76
2022/10/29 00:04:01;;;;;;;25.98;9.25;;;13.30;99.90;;;;;;5089449;28;20401;-76
2022/10/29 00:06:27;;;;;;;32.60;9.73;;;13.30;99.90;;;;;;5089026;28;20472;-76
2022/10/29 00:08:52;;;;;;;25.77;9.20;;;13.30;99.90;;;;;;5090481;28;20458;-76
2022/10/29 00:11:20;;;;;;;32.93;10.10;;;13.30;99.90;;;;;;5088011;28;20475;-76
2022/10/29 00:13:47;;;;;;;31.60;10.07;;;13.30;99.90;;;;;;5090146;28;20413;-76
2022/10/29 00:16:17;;;;;;;35.75;10.23;;;13.30;99.90;;;;;;5088674;28;20417;-76
2022/10/29 00:18:43;;;;;;;30.55;10.45;;;13.20;99.90;;;;;;5089471;28;20404;-76
2022/10/29 00:21:15;;;;;;;38.63;11.32;;;13.20;99.90;;;;;;5090229;28;20398;-76
2022/10/29 00:23:41;;;;;;;33.20;10.05;;;13.20;99.90;;;;;;5089931;28;20824;-76
2022/10/29 00:26:07;;;;;;;30.13;10.48;;;13.20;99.90;;;;;;5089912;28;20443;-76
2022/10/29 00:28:33;;;;;;;31.52;10.50;;;13.20;99.90;;;;;;5089627;28;20448;-75
2022/10/29 00:31:07;;;;;;;25.23;9.98;;;13.20;99.90;;;;;;5089636;28;20410;-76
2022/10/29 00:33:33;;;;;;;34.30;10.70;;;13.20;99.90;;;;;;5088010;28;20408;-76
2022/10/29 00:36:04;;;;;;;40.78;11.05;;;13.20;99.90;;;;;;5092338;28;20475;-76
2022/10/29 00:38:32;;;;;;;36.58;12.02;;;13.20;99.90;;;;;;5088463;28;20483;-76
2022/10/29 00:40:58;;;;;;;60.03;12.85;;;13.20;99.90;;;;;;5088243;28;20410;-76
2022/10/29 00:43:25;;;;;;;37.20;11.33;;;13.20;99.90;;;;;;5089096;28;20428;-76
2022/10/29 00:46:02;;;;;;;46.45;11.80;;;13.30;99.90;;;;;;5088356;28;20410;-76
2022/10/29 00:48:32;;;;;;;42.78;11.18;;;13.20;99.90;;;;;;5097150;28;20444;-76
2022/10/29 00:51:01;;;;;;;41.97;11.18;;;13.20;99.90;;;;;;5089263;28;20434;-76
2022/10/29 00:53:30;;;;;;;38.53;10.47;;;13.30;99.90;;;;;;5088100;28;20406;-75
2022/10/29 00:55:57;;;;;;;29.55;9.38;;;13.30;99.90;;;;;;5098613;28;20393;-75
2022/10/29 00:58:23;;;;;;;44.50;10.60;;;13.30;99.90;;;;;;5089631;28;20402;-76
2022/10/29 01:00:48;;;;;;;36.30;10.20;;;13.30;99.90;;;;;;5090868;28;20411;-76
2022/10/29 01:03:14;;;;;;;44.35;10.48;;;13.30;99.90;;;;;;5090782;28;20441;-76
2022/10/29 01:05:40;;;;;;;33.00;10.30;;;13.30;99.90;;;;;;5089412;28;20406;-76
2022/10/29 01:08:06;;;;;;;47.55;11.57;;;13.30;99.90;;;;;;5088598;28;20931;-76
2022/10/29 01:10:54;;;;;;;26.52;9.43;;;13.20;99.90;;;;;;5089117;28;20451;-76
2022/10/29 01:13:39;;;;;;;39.28;11.13;;;13.30;99.90;;;;;;5084209;28;20422;-76
2022/10/29 01:16:46;;;;;;;29.95;11.00;;;13.20;99.90;;;;;;5088905;28;20406;-76
2022/10/29 01:19:26;;;;;;;57.50;12.27;;;13.20;99.90;;;;;;5057494;28;20453;-76
2022/10/29 01:22:15;;;;;;;40.83;11.25;;;13.20;99.90;;;;;;5081835;28;20414;-76
2022/10/29 01:25:14;;;;;;;56.17;11.40;;;13.20;99.90;;;;;;5080661;28;20414;-76
2022/10/29 01:28:01;;;;;;;52.15;11.50;;;13.20;99.90;;;;;;5089638;28;20434;-76
2022/10/29 01:30:46;;;;;;;50.38;11.38;;;13.20;99.90;;;;;;5087405;28;20410;-75
2022/10/29 01:33:14;;;;;;;36.78;11.02;;;13.20;99.90;;;;;;5070362;28;20414;-76
2022/10/29 01:35:59;;;;;;;45.43;11.13;;;13.20;99.90;;;;;;5087496;28;20406;-76
2022/10/29 01:38:45;;;;;;;32.38;10.55;;;13.20;99.90;;;;;;5086884;28;20414;-76
2022/10/29 01:41:18;;;;;;;38.80;11.07;;;13.20;99.90;;;;;;5077795;28;20513;-75
2022/10/29 01:43:50;;;;;;;39.78;11.73;;;13.20;99.90;;;;;;5092207;28;20419;-75
2022/10/29 01:46:21;;;;;;;34.53;11.50;;;13.20;99.90;;;;;;5087488;28;20937;-76
2022/10/29 01:48:51;;;;;;;55.20;13.05;;;13.20;99.90;;;;;;5070208;28;21088;-76
2022/10/29 01:51:27;;;;;;;49.90;13.10;;;13.20;99.90;;;;;;5088492;28;20546;-76
2022/10/29 01:53:53;;;;;;;52.10;12.85;;;13.20;99.90;;;;;;5087098;28;20398;-76
2022/10/29 01:56:19;;;;;;;62.88;13.23;;;13.20;99.90;;;;;;5087468;28;20408;-76
2022/10/29 01:58:50;;;;;;;45.90;12.43;;;13.10;99.90;;;;;;5088539;28;20393;-76
2022/10/29 02:01:21;;;;;;;39.30;12.23;;;13.20;99.90;;;;;;5080491;28;20432;-75
2022/10/29 02:04:16;;;;;;;35.42;11.07;;;13.20;99.90;;;;;;5088587;28;20922;-75
2022/10/29 02:06:59;;;;;;;43.60;12.20;;;13.20;99.90;;;;;;5067229;28;20418;-76
2022/10/29 02:09:32;;;;;;;54.30;12.95;;;13.20;99.90;;;;;;5083373;28;20422;-76
2022/10/29 02:12:21;;;;;;;131.07;19.02;;;13.20;99.90;;;;;;5086903;28;20416;-76
2022/10/29 02:14:57;;;;;;;154.10;18.93;;;13.20;99.90;;;;;;5079922;28;20406;-75
2022/10/29 02:17:23;;;;;;;100.50;15.95;;;13.20;99.90;;;;;;5076843;28;20923;-76
2022/10/29 02:19:49;;;;;;;101.87;16.20;;;13.20;99.90;;;;;;5087914;28;20488;-76
2022/10/29 02:22:14;;;;;;;90.00;15.30;;;13.20;99.90;;;;;;5086481;28;20426;-76
2022/10/29 02:24:40;;;;;;;80.63;15.80;;;13.20;99.90;;;;;;5087861;28;20409;-76
2022/10/29 02:27:06;;;;;;;47.80;13.93;;;13.20;99.90;;;;;;5088217;28;20406;-76
2022/10/29 02:29:32;;;;;;;79.82;14.45;;;13.20;99.90;;;;;;5086628;28;20915;-76
2022/10/29 02:31:58;;;;;;;84.38;15.27;;;13.20;99.90;;;;;;5087873;28;20414;-76
2022/10/29 02:34:24;;;;;;;72.73;15.73;;;13.20;99.90;;;;;;5087585;28;20408;-76
2022/10/29 02:36:49;;;;;;;96.80;14.95;;;13.20;99.90;;;;;;5069520;28;20416;-76
2022/10/29 02:39:15;;;;;;;108.57;16.30;;;13.30;99.90;;;;;;5089043;28;20404;-76
2022/10/29 02:41:40;;;;;;;139.05;18.25;;;13.20;99.90;;;;;;5086675;28;20760;-76
2022/10/29 02:44:06;;;;;;;131.50;18.33;;;13.30;99.90;;;;;;5087163;28;20918;-75
2022/10/29 02:46:34;;;;;;;102.50;16.30;;;13.30;99.90;;;;;;5069746;28;20402;-76
2022/10/29 02:49:00;;;;;;;97.43;14.65;;;13.30;99.90;;;;;;5086410;28;20432;-75
2022/10/29 02:51:26;;;;;;;103.22;15.05;;;13.30;99.90;;;;;;5087532;28;20830;-76
2022/10/29 02:53:51;;;;;;;93.90;13.80;;;13.30;99.90;;;;;;5088827;28;20405;-76
2022/10/29 02:56:17;;;;;;;123.32;16.83;;;13.20;99.90;;;;;;5091037;28;20760;-76
2022/10/29 02:58:43;;;;;;;86.07;13.02;;;13.20;99.90;;;;;;5090661;28;20958;-76
2022/10/29 03:01:08;;;;;;;131.57;16.33;;;13.20;99.90;;;;;;5090300;28;20870;-76
2022/10/29 03:03:34;;;;;;;78.47;13.50;;;13.20;99.90;;;;;;5090136;28;20406;-76
2022/10/29 03:06:00;;;;;;;68.60;12.68;;;13.20;99.90;;;;;;5094029;28;20406;-76
2022/10/29 03:08:26;;;;;;;91.30;13.93;;;13.10;99.90;;;;;;5084775;28;20967;-75
2022/10/29 03:10:53;;;;;;;93.03;15.55;;;13.20;99.90;;;;;;5090172;28;20768;-76
2022/10/29 03:13:18;;;;;;;75.85;14.13;;;13.20;99.90;;;;;;5090214;28;20442;-76
2022/10/29 03:15:44;;;;;;;55.40;12.70;;;13.10;99.90;;;;;;5095196;28;20915;-75
2022/10/29 03:18:10;;;;;;;46.50;12.00;;;13.10;99.90;;;;;;5089812;28;20463;-76
2022/10/29 03:20:35;;;;;;;54.35;12.68;;;13.10;99.90;;;;;;5085876;28;20391;-76
2022/10/29 03:23:01;;;;;;;61.35;12.63;;;13.10;99.90;;;;;;5085239;28;20418;-76
2022/10/29 03:25:26;;;;;;;69.17;13.33;;;13.10;99.90;;;;;;5089564;28;20404;-76
2022/10/29 03:27:52;;;;;;;65.00;12.90;;;13.10;99.90;;;;;;5089200;28;20509;-75
2022/10/29 03:30:18;;;;;;;66.72;13.32;;;13.10;99.90;;;;;;5088647;28;20764;-76
2022/10/29 03:32:45;;;;;;;63.15;13.13;;;13.00;99.90;;;;;;5088968;28;20402;-75
2022/10/29 03:35:12;;;;;;;67.47;13.50;;;13.00;99.90;;;;;;5088066;28;20396;-75
2022/10/29 03:37:38;;;;;;;56.20;12.83;;;12.90;99.90;;;;;;5077989;28;20408;-75
2022/10/29 03:40:05;;;;;;;43.03;11.90;;;12.90;99.90;;;;;;5089842;28;20402;-76
2022/10/29 03:42:30;;;;;;;32.70;10.38;;;12.90;99.90;;;;;;5089715;28;20905;-76
2022/10/29 03:45:00;;;;;;;40.00;11.53;;;12.90;99.90;;;;;;5083589;28;20404;-76
2022/10/29 03:47:27;;;;;;;47.15;11.88;;;12.90;99.90;;;;;;5083514;28;20432;-75
2022/10/29 03:49:53;;;;;;;57.42;12.20;;;12.80;99.90;;;;;;5089832;28;20401;-76
2022/10/29 03:52:19;;;;;;;54.97;12.80;;;12.80;99.90;;;;;;5088190;28;20434;-75
2022/10/29 03:54:45;;;;;;;45.03;11.65;;;12.80;99.90;;;;;;5089365;28;20398;-75
2022/10/29 03:57:11;;;;;;;40.30;11.30;;;12.80;99.90;;;;;;5071120;28;20405;-75
2022/10/29 03:59:37;;;;;;;42.25;11.52;;;12.80;99.90;;;;;;5087828;28;20954;-76
2022/10/29 04:02:02;;;;;;;36.83;10.50;;;12.70;99.90;;;;;;5090564;28;20433;-76
2022/10/29 04:04:28;;;;;;;36.13;11.13;;;12.70;99.90;;;;;;5071520;28;20477;-75
2022/10/29 04:06:54;;;;;;;39.15;10.57;;;12.70;99.90;;;;;;5087806;28;20433;-75
2022/10/29 04:09:19;;;;;;;40.40;11.00;;;12.70;99.90;;;;;;5088009;28;20441;-76
2022/10/29 04:11:45;;;;;;;35.20;10.30;;;12.70;99.90;;;;;;5089678;28;20410;-75
2022/10/29 04:14:10;;;;;;;47.72;10.70;;;12.60;99.90;;;;;;5071996;28;20504;-75
2022/10/29 04:16:36;;;;;;;30.27;8.97;;;12.60;99.90;;;;;;5058656;28;20431;-76
2022/10/29 04:19:02;;;;;;;31.38;9.55;;;12.60;99.90;;;;;;5089671;28;20402;-76
2022/10/29 04:21:28;;;;;;;31.95;9.73;;;12.60;99.90;;;;;;5089576;28;20907;-75
2022/10/29 04:23:53;;;;;;;41.73;10.10;;;12.60;99.90;;;;;;5088322;28;20414;-75
2022/10/29 04:26:19;;;;;;;46.15;10.27;;;12.60;99.90;;;;;;5089674;28;20394;-75
2022/10/29 04:28:49;;;;;;;43.77;10.37;;;12.60;99.90;;;;;;5089744;28;20433;-75
2022/10/29 04:31:15;;;;;;;35.38;9.50;;;12.60;99.90;;;;;;5089864;28;20787;-75
2022/10/29 04:33:40;;;;;;;51.97;11.67;;;12.50;99.90;;;;;;5091636;28;20444;-75
2022/10/29 04:36:06;;;;;;;32.87;9.50;;;12.50;99.90;;;;;;5097176;28;20452;-76
2022/10/29 04:38:32;;;;;;;34.80;9.52;;;12.60;99.90;;;;;;5087854;28;21005;-75
2022/10/29 04:40:59;;;;;;;36.22;10.00;;;12.50;99.90;;;;;;5089619;28;20493;-75
2022/10/29 04:43:25;;;;;;;30.67;10.05;;;12.50;99.90;;;;;;5089024;28;20485;-75
2022/10/29 04:45:52;;;;;;;33.63;9.77;;;12.50;99.90;;;;;;5089552;28;20405;-76
2022/10/29 04:48:18;;;;;;;27.50;9.23;;;12.50;99.90;;;;;;5088107;28;20949;-75
2022/10/29 04:50:44;;;;;;;43.37;10.40;;;12.50;99.90;;;;;;5087647;28;20402;-75
2022/10/29 04:53:10;;;;;;;40.22;10.27;;;12.50;99.90;;;;;;5088360;28;20451;-75
2022/10/29 04:55:37;;;;;;;31.30;9.43;;;12.60;99.90;;;;;;5089522;28;20398;-75
2022/10/29 04:58:03;;;;;;;32.70;10.05;;;12.50;99.90;;;;;;5076483;28;20398;-75
2022/10/29 05:00:29;;;;;;;32.17;9.82;;;12.60;99.90;;;;;;5088266;28;20459;-75
2022/10/29 05:02:55;;;;;;;34.23;9.67;;;12.60;99.90;;;;;;5088022;28;20406;-75
2022/10/29 05:05:21;;;;;;;29.27;9.50;;;12.60;99.90;;;;;;5088097;28;20434;-75
2022/10/29 05:07:47;;;;;;;50.40;10.90;;;12.50;99.90;;;;;;5089479;28;21302;-75
2022/10/29 05:10:12;;;;;;;59.23;11.97;;;12.60;99.90;;;;;;5088484;28;20395;-75
2022/10/29 05:12:39;;;;;;;47.88;11.07;;;12.60;99.90;;;;;;5088930;28;20405;-76
2022/10/29 05:15:06;;;;;;;42.67;9.82;;;12.60;99.90;;;;;;5088814;28;20406;-76
2022/10/29 05:17:36;;;;;;;46.95;9.68;;;12.60;99.90;;;;;;5087966;28;20756;-75
2022/10/29 05:20:01;;;;;;;53.42;11.13;;;12.60;99.90;;;;;;5088733;28;20900;-76
2022/10/29 05:22:27;;;;;;;56.13;11.10;;;12.60;99.90;;;;;;5088879;28;20410;-75
2022/10/29 05:24:53;;;;;;;51.33;10.10;;;12.70;99.90;;;;;;5088748;28;20405;-75
2022/10/29 05:27:18;;;;;;;62.17;10.63;;;12.60;99.90;;;;;;5088508;28;20402;-76
2022/10/29 05:29:44;;;;;;;38.25;8.52;;;12.60;99.90;;;;;;5087566;28;20465;-75
2022/10/29 05:32:09;;;;;;;64.97;11.27;;;12.70;99.90;;;;;;5077054;28;20409;-76
2022/10/29 05:34:35;;;;;;;66.40;10.90;;;12.70;99.90;;;;;;5092329;28;20794;-75
2022/10/29 05:37:01;;;;;;;46.73;9.43;;;12.70;99.90;;;;;;5080629;28;20408;-75
2022/10/29 05:39:26;;;;;;;46.25;9.35;;;12.70;99.90;;;;;;5090876;28;20411;-75
2022/10/29 05:41:52;;;;;;;40.23;8.47;;;12.70;99.90;;;;;;5086975;28;20406;-76
2022/10/29 05:44:17;;;;;;;32.43;8.43;;;12.70;99.90;;;;;;5087544;28;20834;-75
2022/10/29 05:46:43;;;;;;;53.08;10.43;;;12.70;99.90;;;;;;5089412;28;20404;-75
2022/10/29 05:49:11;;;;;;;33.60;8.83;;;12.70;99.90;;;;;;5087834;28;20424;-75
2022/10/29 05:51:36;;;;;;;33.72;8.68;;;12.70;99.90;;;;;;5088636;28;20802;-75
2022/10/29 05:54:02;;;;;;;38.50;9.37;;;12.70;99.90;;;;;;5088057;28;20398;-75
2022/10/29 05:56:27;;;;;;;35.90;8.65;;;12.70;99.90;;;;;;5070583;28;20398;-75
2022/10/29 05:58:53;;;;;;;41.77;8.80;;;12.70;99.90;;;;;;5088431;28;20402;-76
2022/10/29 06:01:18;;;;;;;34.40;8.73;;;12.70;99.90;;;;;;5086451;28;20398;-75
2022/10/29 06:03:45;;;;;;;36.15;9.18;;;12.70;99.90;;;;;;5088310;28;20472;-76
2022/10/29 06:06:10;;;;;;;23.65;7.63;;;12.70;99.90;;;;;;5075407;28;20402;-75
2022/10/29 06:08:36;;;;;;;34.25;9.05;;;12.80;99.90;;;;;;5086535;28;20429;-75
2022/10/29 06:11:03;;;;;;;36.67;9.03;;;12.70;99.90;;;;;;5086247;28;20818;-75
2022/10/29 06:13:29;;;;;;;40.28;9.13;;;12.80;99.90;;;;;;5081744;28;20400;-75
2022/10/29 06:15:59;;;;;;;46.50;9.93;;;12.80;99.90;;;;;;5086873;28;20405;-75
2022/10/29 06:18:27;;;;;;;52.20;9.60;;;12.80;99.90;;;;;;5086652;28;20410;-74
2022/10/29 06:20:53;;;;;;;34.65;8.55;;;12.80;99.90;;;;;;5086456;28;20485;-76
2022/10/29 06:23:19;;;;;;;33.40;9.63;;;12.80;99.90;;;;;;5086959;28;20398;-76
2022/10/29 06:25:45;;;;;;;36.97;9.90;;;12.80;99.90;;;;;;5091612;28;20424;-76
2022/10/29 06:28:14;;;;;;;50.30;10.88;;;12.80;99.90;;;;;;5092593;28;20465;-76
2022/10/29 06:30:44;;;;;;;47.43;10.90;;;12.80;99.90;;;;;;5091987;28;20463;-76
2022/10/29 06:33:10;;;;;;;49.03;10.68;;;12.80;99.90;;;;;;5091237;28;20595;-76
2022/10/29 06:35:35;;;;;;;47.57;9.73;;;12.80;99.90;;;;;;5094725;28;20899;-76
2022/10/29 06:38:02;;;;;;;49.92;9.85;;;12.80;99.90;;;;;;5091519;28;20459;-76
2022/10/29 06:40:28;;;;;;;57.38;9.65;;;12.80;99.90;;;;;;5091533;28;20779;-76
2022/10/29 06:43:05;;;;;;;61.15;9.85;;;12.80;99.90;;;;;;5091946;28;20401;-76
2022/10/29 06:45:32;;;;;;;39.10;9.50;;;12.80;99.90;;;;;;5090587;28;20919;-76
2022/10/29 06:47:57;;;;;;;62.63;10.37;;;12.80;99.90;;;;;;5089684;28;20426;-76
2022/10/29 06:50:23;;;;;;;48.95;8.95;;;12.90;99.90;;;;;;5091876;28;20401;-76
2022/10/29 06:53:03;;;;;;;60.22;10.10;;;12.90;99.90;;;;;;5092257;28;20752;-76
2022/10/29 06:55:29;;;;;;;53.95;9.43;;;12.90;99.90;;;;;;5099075;28;20408;-76
2022/10/29 06:58:16;;;;;;;38.73;8.30;;;12.90;99.90;;;;;;5090410;28;20410;-76
2022/10/29 07:00:42;;;;;;;65.97;10.93;;;12.90;99.90;;;;;;5091470;28;21392;-76
2022/10/29 07:03:11;;;;;;;58.28;9.80;;;12.90;99.90;;;;;;5091605;28;20406;-76
2022/10/29 07:05:37;;;;;;;64.93;9.18;;;12.90;99.90;;;;;;5089999;28;21296;-76
2022/10/29 07:08:03;;;;;;;54.78;9.35;;;12.90;99.90;;;;;;5090831;28;20426;-76
2022/10/29 07:10:30;;;;;;;61.20;9.67;;;13.00;99.90;;;;;;5091042;28;20433;-76
2022/10/29 07:12:57;;;;;;;41.45;9.18;;;13.00;99.90;;;;;;5091162;28;20455;-76
2022/10/29 07:15:23;;;;;;;40.53;9.10;;;13.00;99.90;;;;;;5090949;28;20394;-76
2022/10/29 07:18:03;;;;;;;48.92;9.57;;;13.00;99.90;;;;;;5090352;28;20409;-76
2022/10/29 07:20:31;;;;;;;38.78;9.50;;;13.00;99.90;;;;;;5089215;28;21143;-76
2022/10/29 07:22:58;;;;;;;44.67;9.88;;;13.10;99.90;;;;;;5090371;28;20481;-76
2022/10/29 07:25:24;;;;;;;50.88;10.30;;;13.10;99.90;;;;;;5090837;28;20486;-76
2022/10/29 07:27:49;;;;;;;37.85;8.82;;;13.20;99.90;;;;;;5073030;28;20418;-76
2022/10/29 07:30:15;;;;;;;49.55;10.25;;;13.10;99.90;;;;;;5090596;28;20405;-76
2022/10/29 07:32:41;;;;;;;35.42;8.93;;;13.10;99.90;;;;;;5073219;28;20764;-76
2022/10/29 07:35:08;;;;;;;37.90;9.17;;;13.20;99.90;;;;;;5082512;28;20406;-76
2022/10/29 07:37:33;;;;;;;57.40;10.50;;;13.20;99.90;;;;;;5090636;28;20429;-76
2022/10/29 07:39:59;;;;;;;41.22;9.70;;;13.20;99.90;;;;;;5088408;28;20491;-76
2022/10/29 07:42:26;;;;;;;40.72;10.15;;;13.20;99.90;;;;;;5089480;28;20465;-76
2022/10/29 07:44:52;;;;;;;55.30;11.82;;;13.20;99.90;;;;;;5090877;28;20434;-76
2022/10/29 07:47:17;;;;;;;46.23;11.47;;;13.30;99.90;;;;;;5090647;28;20767;-76
2022/10/29 07:49:43;;;;;;;54.45;12.40;;;13.30;99.90;;;;;;5090759;28;20413;-76
2022/10/29 07:52:09;;;;;;;57.10;12.57;;;13.30;99.90;;;;;;5089331;28;20418;-76
2022/10/29 07:54:35;;;;;;;55.63;13.13;;;13.30;99.90;;;;;;5076834;28;20398;-76
2022/10/29 07:57:01;;;;;;;52.72;14.00;;;13.40;99.90;;;;;;5090701;28;20406;-76
2022/10/29 07:59:26;;;;;;;52.50;14.03;;;13.40;99.90;;;;;;5088489;28;20438;-76
2022/10/29 08:01:52;;;;;;;69.22;15.25;;;13.40;99.90;;;;;;5080220;28;20427;-74
2022/10/29 08:04:18;;;;;;;74.20;15.63;;;13.40;99.90;;;;;;5070143;28;20419;-75
2022/10/29 08:06:44;;;;;;;78.45;15.77;;;13.40;99.90;;;;;;5071739;28;20469;-75
2022/10/29 08:09:11;;;;;;;62.83;15.90;;;13.50;99.90;;;;;;5062698;28;20433;-75
2022/10/29 08:11:37;;;;;;;62.43;15.80;;;13.50;99.90;;;;;;5072376;28;20408;-75
2022/10/29 08:14:03;;;;;;;86.70;17.45;;;13.50;99.90;;;;;;5077174;28;20486;-77
2022/10/29 08:16:29;;;;;;;66.20;16.20;;;13.50;99.90;;;;;;5075334;28;20410;-75
2022/10/29 08:18:54;;;;;;;78.23;17.33;;;13.60;99.90;;;;;;5079644;28;20426;-75
2022/10/29 08:21:20;;;;;;;72.57;17.45;;;13.60;99.90;;;;;;5090318;28;20459;-76
2022/10/29 08:23:46;;;;;;;56.83;15.65;;;13.60;99.90;;;;;;5068397;28;20400;-71
2022/10/29 08:26:12;;;;;;;67.43;17.50;;;13.70;99.90;;;;;;5076635;28;20419;-76
2022/10/29 08:28:37;;;;;;;86.07;18.17;;;13.70;99.90;;;;;;5077424;28;20518;-76
2022/10/29 08:31:03;;;;;;;66.00;16.17;;;13.70;99.90;;;;;;5086143;28;20401;-75
2022/10/29 08:33:29;;;;;;;65.22;17.10;;;13.80;99.90;;;;;;5087463;28;20402;-76
2022/10/29 08:35:54;;;;;;;84.03;19.67;;;13.80;99.90;;;;;;5081485;28;20937;-76
2022/10/29 08:38:24;;;;;;;89.03;19.00;;;13.80;99.90;;;;;;5086404;28;20417;-76
2022/10/29 08:41:08;;;;;;;72.90;17.35;;;13.90;99.90;;;;;;5078125;28;20424;-76
2022/10/29 08:43:57;;;;;;;82.25;18.48;;;13.90;99.90;;;;;;5087246;28;20402;-75
2022/10/29 08:46:39;;;;;;;97.45;18.95;;;13.90;99.90;;;;;;5085704;28;20410;-76
2022/10/29 08:49:12;;;;;;;85.68;19.48;;;14.00;99.90;;;;;;5068291;28;20529;-75
2022/10/29 08:51:43;;;;;;;76.57;17.70;;;14.00;99.90;;;;;;5087073;28;20406;-75
2022/10/29 08:54:12;;;;;;;103.45;20.13;;;14.00;99.90;;;;;;5085802;28;20426;-75
2022/10/29 08:56:43;;;;;;;84.30;19.57;;;14.10;99.90;;;;;;5077472;28;21266;-76
2022/10/29 08:59:23;;;;;;;91.18;20.30;;;14.00;99.90;;;;;;5082728;28;20591;-76
2022/10/29 09:01:51;;;;;;;71.65;19.25;;;14.10;99.90;;;;;;5079667;28;20413;-76
2022/10/29 09:04:36;;;;;;;94.30;21.05;;;14.10;99.90;;;;;;5075900;28;20401;-76
2022/10/29 09:07:23;;;;;;;80.22;19.65;;;14.10;99.90;;;;;;5078466;28;20431;-76
2022/10/29 09:10:15;;;;;;;83.10;20.35;;;14.10;99.90;;;;;;5084249;28;20542;-75
2022/10/29 09:13:17;;;;;;;69.75;19.33;;;14.20;99.90;;;;;;5052625;28;20968;-76
2022/10/29 09:16:09;;;;;;;64.13;19.13;;;14.20;99.90;;;;;;5090681;28;20429;-76
2022/10/29 09:18:54;;;;;;;80.28;21.17;;;14.30;99.90;;;;;;5076719;28;20463;-76
2022/10/29 09:21:36;;;;;;;82.00;21.05;;;14.40;99.90;;;;;;5060172;28;20569;-76
2022/10/29 09:24:18;;;;;;;82.50;21.92;;;14.40;99.90;;;;;;5086732;28;20442;-76
2022/10/29 09:27:18;;;;;;;104.05;24.52;;;14.50;99.90;;;;;;5084908;28;20429;-76
2022/10/29 09:30:09;;;;;;;101.25;25.15;;;14.50;99.90;;;;;;5078435;28;20468;-77
2022/10/29 09:32:39;;;;;;;99.88;25.42;;;14.50;99.90;;;;;;5087290;28;21005;-74
2022/10/29 09:35:17;;;;;;;99.10;25.20;;;14.50;99.90;;;;;;5069781;28;20493;-77
2022/10/29 09:37:53;;;;;;;109.75;26.15;;;14.50;99.90;;;;;;5086021;28;20463;-77
2022/10/29 09:40:41;;;;;;;95.82;24.92;;;14.40;99.90;;;;;;5072396;28;20431;-75
2022/10/29 09:43:45;;;;;;;91.82;24.60;;;14.40;99.90;;;;;;5080641;28;20907;-75
2022/10/29 09:46:30;;;;;;;85.47;25.33;;;14.50;99.90;;;;;;5062216;28;20761;-75
2022/10/29 09:49:08;;;;;;;94.00;24.85;;;14.50;99.90;;;;;;5075460;28;20427;-76
2022/10/29 09:51:48;;;;;;;84.85;25.65;;;14.60;99.90;;;;;;5062160;28;20424;-76
2022/10/29 09:54:15;;;;;;;77.22;25.13;;;14.60;99.90;;;;;;5079946;28;20414;-76
2022/10/29 09:56:42;;;;;;;86.03;26.88;;;14.70;99.90;;;;;;5071416;28;20442;-76
2022/10/29 09:59:28;;;;;;;81.75;26.65;;;14.70;99.90;;;;;;5090415;28;20412;-76
2022/10/29 10:01:54;;;;;;;83.10;26.83;;;14.80;99.90;;;;;;5079713;28;20421;-75
2022/10/29 10:04:27;;;;;;;83.38;26.70;;;14.80;99.90;;;;;;5085621;28;20421;-75
2022/10/29 10:07:10;;;;;;;79.63;27.42;;;14.90;99.90;;;;;;5084412;28;20418;-76
2022/10/29 10:09:56;;;;;;;79.05;27.25;;;15.00;99.90;;;;;;5077532;28;20428;-76
2022/10/29 10:12:35;;;;;;;71.60;26.92;;;15.10;99.90;;;;;;5083420;28;20426;-76
2022/10/29 10:15:30;;;;;;;69.55;26.67;;;15.10;99.90;;;;;;5082153;28;20418;-75
2022/10/29 10:18:04;;;;;;;70.90;27.35;;;15.10;99.90;;;;;;5084561;28;20469;-76
2022/10/29 10:20:35;;;;;;;70.80;28.17;;;15.20;99.90;;;;;;5086394;28;20471;-75
2022/10/29 10:23:17;;;;;;;68.22;26.35;;;15.20;99.90;;;;;;5078495;28;20838;-76
2022/10/29 10:25:43;;;;;;;67.88;27.23;;;15.20;99.90;;;;;;5076059;28;20426;-75
2022/10/29 10:28:17;;;;;;;66.72;27.13;;;15.20;99.90;;;;;;5076954;28;21177;-75
2022/10/29 10:31:02;;;;;;;67.22;27.05;;;15.30;99.90;;;;;;5086331;28;20487;-76
2022/10/29 10:33:29;;;;;;;71.80;28.60;;;15.40;99.90;;;;;;5081712;28;20426;-76
2022/10/29 10:35:54;;;;;;;65.13;28.10;;;15.50;99.90;;;;;;5096654;28;20404;-75
2022/10/29 10:38:20;;;;;;;64.33;27.07;;;15.70;99.90;;;;;;5085897;28;20783;-75
2022/10/29 10:41:06;;;;;;;65.10;28.38;;;15.90;99.90;;;;;;5088066;28;20460;-75
2022/10/29 10:43:33;;;;;;;60.90;27.00;;;16.10;99.90;;;;;;5065657;28;20429;-75
2022/10/29 10:46:04;;;;;;;54.75;25.42;;;16.50;99.90;;;;;;5087396;28;20422;-75
2022/10/29 10:48:30;;;;;;;57.28;25.50;;;16.60;99.90;;;;;;5083251;28;20838;-75
2022/10/29 10:51:26;;;;;;;54.00;25.85;;;16.50;99.90;;;;;;5084760;28;20414;-76
2022/10/29 10:53:52;;;;;;;53.85;24.75;;;16.40;99.90;;;;;;5079185;28;20479;-76
2022/10/29 10:56:20;;;;;;;52.38;25.33;;;16.30;99.90;;;;;;5067742;28;20392;-76
2022/10/29 10:59:11;;;;;;;50.47;23.58;;;16.40;99.90;;;;;;5068237;28;20773;-75
2022/10/29 11:01:41;;;;;;;49.15;24.00;;;16.30;99.90;;;;;;5051817;28;20412;-75
2022/10/29 11:04:18;;;;;;;50.50;23.23;;;16.30;99.90;;;;;;5076385;28;20414;-75
2022/10/29 11:06:48;;;;;;;46.40;21.77;;;16.40;99.90;;;;;;5058783;28;20415;-75
2022/10/29 11:09:23;;;;;;;44.23;22.10;;;16.50;99.90;;;;;;5065492;28;20439;-75
2022/10/29 11:11:51;;;;;;;45.33;21.92;;;16.60;99.90;;;;;;5066445;28;20411;-76
2022/10/29 11:14:35;;;;;;;45.35;22.35;;;16.70;99.90;;;;;;5075752;28;20836;-75
2022/10/29 11:17:03;;;;;;;40.85;21.98;;;16.70;99.90;;;;;;5088619;28;20775;-75
2022/10/29 11:19:40;;;;;;;43.05;20.50;;;16.80;99.90;;;;;;5089776;28;20395;-75
2022/10/29 11:22:14;;;;;;;35.85;18.95;;;16.90;99.90;;;;;;5086805;28;20430;-75
2022/10/29 11:24:55;;;;;;;33.90;18.37;;;17.10;99.90;;;;;;5086940;28;20824;-75
2022/10/29 11:28:02;;;;;;;34.85;18.17;;;17.30;99.90;;;;;;5087463;28;20467;-75
2022/10/29 11:30:32;;;;;;;37.67;18.83;;;17.30;99.90;;;;;;5076145;28;20425;-75
2022/10/29 11:33:16;;;;;;;43.65;19.77;;;17.40;99.90;;;;;;5087726;28;20428;-76
2022/10/29 11:36:05;;;;;;;36.90;18.80;;;17.40;99.90;;;;;;5087230;28;20509;-75
2022/10/29 11:38:41;;;;;;;38.83;19.43;;;17.30;99.90;;;;;;5077198;28;20478;-75
2022/10/29 11:41:25;;;;;;;39.42;19.45;;;17.30;99.90;;;;;;5088291;28;20513;-75
2022/10/29 11:43:51;;;;;;;41.63;20.42;;;17.20;99.90;;;;;;5088552;28;20530;-76
2022/10/29 11:46:35;;;;;;;43.85;20.73;;;17.20;99.90;;;;;;5086983;28;20430;-76
2022/10/29 11:49:12;;;;;;;44.63;24.20;;;17.20;99.90;;;;;;5084798;28;20435;-76
2022/10/29 11:52:08;;;;;;;42.37;23.90;;;17.20;99.90;;;;;;5085095;28;20410;-75
2022/10/29 11:54:54;;;;;;;40.08;22.98;;;17.20;99.90;;;;;;5077026;28;20437;-76
2022/10/29 11:57:58;;;;;;;37.90;20.27;;;17.20;99.90;;;;;;5090336;28;20892;-75
2022/10/29 12:00:25;;;;;;;37.72;20.38;;;17.40;99.90;;;;;;5063124;28;20809;-75
2022/10/29 12:03:11;;;;;;;30.77;17.88;;;17.50;99.90;;;;;;5090425;28;20512;-76
2022/10/29 12:05:58;;;;;;;30.83;17.52;;;17.50;99.90;;;;;;5087660;28;20784;-76
2022/10/29 12:08:59;;;;;;;30.02;16.63;;;17.60;99.90;;;;;;5089237;28;20807;-76
2022/10/29 12:11:30;;;;;;;26.67;14.15;;;17.60;99.90;;;;;;5089015;28;20488;-76
2022/10/29 12:14:19;;;;;;;29.77;14.27;;;17.80;99.90;;;;;;5058602;28;20426;-76
2022/10/29 12:17:02;;;;;;;24.80;13.70;;;17.90;99.90;;;;;;5087736;28;21078;-76
2022/10/29 12:19:34;;;;;;;27.00;13.03;;;18.10;99.90;;;;;;5088005;28;20466;-76
2022/10/29 12:22:15;;;;;;;24.42;13.20;;;18.30;99.90;;;;;;5089870;28;20912;-76
2022/10/29 12:25:05;;;;;;;24.15;12.77;;;18.30;99.90;;;;;;5087954;28;20424;-76
2022/10/29 12:27:47;;;;;;;21.30;11.47;;;18.40;99.90;;;;;;5087765;28;20414;-76
2022/10/29 12:30:16;;;;;;;22.55;11.60;;;18.40;99.90;;;;;;5088220;28;20445;-76
2022/10/29 12:33:17;;;;;;;23.97;11.33;;;18.30;99.90;;;;;;5083923;28;20470;-76
2022/10/29 12:36:08;;;;;;;20.45;10.88;;;18.30;99.90;;;;;;5064814;28;20428;-76
2022/10/29 12:38:33;;;;;;;19.38;10.75;;;18.30;99.90;;;;;;5088106;28;20995;-76
2022/10/29 12:41:24;;;;;;;22.65;12.18;;;18.30;99.90;;;;;;5083850;28;20533;-75
2022/10/29 12:43:53;;;;;;;19.15;11.65;;;18.40;99.90;;;;;;5084942;28;20445;-76
2022/10/29 12:46:42;;;;;;;20.93;12.00;;;18.40;99.90;;;;;;5084502;28;20410;-76
2022/10/29 12:49:17;;;;;;;20.63;11.75;;;18.50;99.90;;;;;;5089615;28;20436;-76
2022/10/29 12:52:02;;;;;;;24.98;11.77;;;18.50;99.90;;;;;;5079278;28;20815;-76